Time;durP1;ratioP1;P1;durP2;ratioP2;P2;SDS_P1;SDS_P2;PMS_P1;PMS_P2;Temp;Humidity;BMP_temperature;BMP_pressure;BME280_temperature;BME280_humidity;BME280_pressure;Samples;Min_cycle;Max_cycle;Signal;HPM_P1;HPM_P2
2023/11/06 00:02:28;;;;;;;1.70;0.50;;;;;;;;;;5033725;28;20042;-54
2023/11/06 00:04:57;;;;;;;2.53;1.00;;;;;;;;;;5033197;28;20042;-56
2023/11/06 00:07:24;;;;;;;3.08;0.70;;;;;;;;;;5034022;28;20053;-54
2023/11/06 00:09:52;;;;;;;2.05;0.90;;;;;;;;;;5033717;28;20136;-54
2023/11/06 00:12:19;;;;;;;1.80;0.50;;;;;;;;;;5033597;28;20048;-56
2023/11/06 00:14:47;;;;;;;0.57;0.40;;;;;;;;;;5032972;28;20099;-56
2023/11/06 00:17:14;;;;;;;1.75;0.40;;;;;;;;;;5033272;28;20045;-55
2023/11/06 00:19:42;;;;;;;1.35;0.55;;;;;;;;;;5027723;28;20111;-51
2023/11/06 00:22:09;;;;;;;5.18;1.10;;;;;;;;;;5032959;28;20042;-59
2023/11/06 00:24:36;;;;;;;3.65;0.50;;;;;;;;;;5033361;28;20128;-54
2023/11/06 00:27:04;;;;;;;2.75;0.50;;;;;;;;;;5032979;28;20056;-53
2023/11/06 00:29:31;;;;;;;1.02;0.40;;;;;;;;;;5033135;28;20046;-55
2023/11/06 00:32:00;;;;;;;2.40;0.98;;;;;;;;;;5032923;28;20548;-53
2023/11/06 00:34:27;;;;;;;1.05;0.52;;;;;;;;;;5032470;28;20053;-54
2023/11/06 00:36:54;;;;;;;1.92;0.50;;;;;;;;;;5032781;28;20052;-54
2023/11/06 00:39:20;;;;;;;1.90;0.52;;;;;;;;;;5033435;28;20127;-53
2023/11/06 00:41:47;;;;;;;1.98;0.50;;;;;;;;;;5032824;28;20508;-50
2023/11/06 00:44:15;;;;;;;1.63;0.60;;;;;;;;;;5032636;28;20148;-55
2023/11/06 00:46:42;;;;;;;3.03;0.70;;;;;;;;;;5032137;28;20046;-54
2023/11/06 00:49:10;;;;;;;1.75;0.40;;;;;;;;;;5032893;28;20132;-54
2023/11/06 00:51:37;;;;;;;2.03;0.70;;;;;;;;;;5032929;28;20053;-51
2023/11/06 00:54:04;;;;;;;1.23;0.50;;;;;;;;;;5032379;28;20472;-51
2023/11/06 00:56:30;;;;;;;0.88;0.40;;;;;;;;;;5030659;28;20049;-56
2023/11/06 00:58:58;;;;;;;1.65;0.43;;;;;;;;;;5032429;28;20148;-51
2023/11/06 01:01:28;;;;;;;1.88;1.02;;;;;;;;;;5029908;28;20045;-55
2023/11/06 01:03:56;;;;;;;1.80;0.53;;;;;;;;;;5032444;28;20073;-52
2023/11/06 01:06:23;;;;;;;0.88;0.50;;;;;;;;;;5029693;28;20410;-51
2023/11/06 01:08:50;;;;;;;1.05;0.47;;;;;;;;;;5032510;28;20096;-55
2023/11/06 01:11:17;;;;;;;0.70;0.30;;;;;;;;;;5032592;28;20038;-52
2023/11/06 01:13:44;;;;;;;2.40;0.75;;;;;;;;;;5032083;28;20439;-52
2023/11/06 01:16:11;;;;;;;1.83;0.63;;;;;;;;;;5032072;28;20135;-53
2023/11/06 01:18:39;;;;;;;1.92;0.50;;;;;;;;;;5032636;28;20045;-57
2023/11/06 01:21:06;;;;;;;0.95;0.43;;;;;;;;;;5032081;28;20054;-54
2023/11/06 01:23:34;;;;;;;1.75;0.40;;;;;;;;;;5032018;28;20463;-51
2023/11/06 01:26:01;;;;;;;2.95;0.50;;;;;;;;;;5031933;28;20053;-51
2023/11/06 01:28:28;;;;;;;2.65;0.45;;;;;;;;;;5031787;28;20045;-53
2023/11/06 01:30:55;;;;;;;1.27;0.40;;;;;;;;;;5032310;28;20052;-51
2023/11/06 01:33:22;;;;;;;0.77;0.32;;;;;;;;;;5032166;28;20073;-51
2023/11/06 01:35:50;;;;;;;1.20;0.30;;;;;;;;;;5032426;28;20475;-56
2023/11/06 01:38:17;;;;;;;1.23;0.40;;;;;;;;;;5031737;28;20049;-54
2023/11/06 01:40:44;;;;;;;1.45;0.43;;;;;;;;;;5031866;28;20149;-52
2023/11/06 01:43:10;;;;;;;1.83;0.90;;;;;;;;;;5031976;28;20045;-52
2023/11/06 01:45:39;;;;;;;1.95;0.45;;;;;;;;;;5032079;28;20564;-53
2023/11/06 01:48:06;;;;;;;2.10;1.13;;;;;;;;;;5031537;28;20041;-55
2023/11/06 01:50:35;;;;;;;1.15;0.50;;;;;;;;;;5031527;28;20084;-55
2023/11/06 01:53:09;;;;;;;2.33;0.55;;;;;;;;;;5031130;28;20133;-51
2023/11/06 01:55:37;;;;;;;1.08;0.40;;;;;;;;;;5031242;28;20092;-54
2023/11/06 01:58:03;;;;;;;0.77;0.40;;;;;;;;;;5031551;28;20128;-52
2023/11/06 02:00:30;;;;;;;1.95;0.50;;;;;;;;;;5031682;28;20360;-53
2023/11/06 02:02:57;;;;;;;1.30;0.40;;;;;;;;;;5031038;28;20038;-52
2023/11/06 02:05:24;;;;;;;2.00;0.40;;;;;;;;;;5023548;28;20111;-52
2023/11/06 02:07:51;;;;;;;2.80;0.63;;;;;;;;;;5031367;28;20132;-51
2023/11/06 02:10:20;;;;;;;1.15;0.40;;;;;;;;;;5030670;28;20069;-56
2023/11/06 02:12:47;;;;;;;0.30;0.30;;;;;;;;;;5031066;28;20050;-53
2023/11/06 02:15:14;;;;;;;1.30;0.40;;;;;;;;;;5030982;28;20072;-51
2023/11/06 02:17:42;;;;;;;0.95;0.80;;;;;;;;;;5031102;28;20071;-54
2023/11/06 02:20:10;;;;;;;2.42;0.52;;;;;;;;;;5030709;28;20056;-53
2023/11/06 02:22:38;;;;;;;2.45;0.50;;;;;;;;;;5029123;28;20128;-53
2023/11/06 02:25:06;;;;;;;1.48;0.50;;;;;;;;;;5031272;28;20067;-54
2023/11/06 02:27:33;;;;;;;1.20;0.50;;;;;;;;;;5031263;28;20132;-54
2023/11/06 02:30:00;;;;;;;1.83;0.47;;;;;;;;;;5030913;28;20124;-52
2023/11/06 02:32:26;;;;;;;2.35;0.60;;;;;;;;;;5029378;28;20683;-51
2023/11/06 02:34:53;;;;;;;2.58;1.00;;;;;;;;;;5030699;28;20045;-54
2023/11/06 02:37:20;;;;;;;0.65;0.43;;;;;;;;;;5031208;28;20133;-51
2023/11/06 02:39:49;;;;;;;1.40;0.47;;;;;;;;;;5031025;28;20049;-52
2023/11/06 02:42:17;;;;;;;2.67;0.55;;;;;;;;;;5031004;28;20128;-55
2023/11/06 02:44:43;;;;;;;1.05;0.50;;;;;;;;;;5030743;28;20065;-53
2023/11/06 02:47:10;;;;;;;1.50;0.38;;;;;;;;;;5030997;28;20508;-50
2023/11/06 02:49:37;;;;;;;1.35;0.50;;;;;;;;;;5030712;28;20537;-52
2023/11/06 02:52:04;;;;;;;1.13;0.50;;;;;;;;;;5030803;28;20433;-56
2023/11/06 02:54:30;;;;;;;1.73;0.52;;;;;;;;;;5030578;28;20531;-52
2023/11/06 02:56:57;;;;;;;1.50;0.40;;;;;;;;;;5030714;28;20133;-51
2023/11/06 02:59:25;;;;;;;0.90;0.50;;;;;;;;;;5025547;28;20041;-52
2023/11/06 03:01:52;;;;;;;1.58;0.50;;;;;;;;;;5034434;28;20124;-53
2023/11/06 03:04:18;;;;;;;1.17;0.40;;;;;;;;;;5034269;28;20643;-55
2023/11/06 03:06:45;;;;;;;1.70;0.40;;;;;;;;;;5034910;28;20136;-53
2023/11/06 03:09:13;;;;;;;3.65;0.50;;;;;;;;;;5034525;28;20130;-56
2023/11/06 03:11:39;;;;;;;1.73;0.60;;;;;;;;;;5034360;28;20045;-56
2023/11/06 03:14:05;;;;;;;0.95;0.50;;;;;;;;;;5034383;28;20084;-56
2023/11/06 03:16:35;;;;;;;2.42;0.98;;;;;;;;;;5034577;28;20109;-51
2023/11/06 03:19:02;;;;;;;3.58;0.60;;;;;;;;;;5034583;28;20095;-56
2023/11/06 03:21:29;;;;;;;1.40;0.50;;;;;;;;;;5034190;28;20135;-52
2023/11/06 03:23:55;;;;;;;4.35;0.70;;;;;;;;;;5034295;28;20088;-55
2023/11/06 03:26:22;;;;;;;1.70;0.60;;;;;;;;;;5034177;28;20095;-51
2023/11/06 03:28:49;;;;;;;1.30;0.55;;;;;;;;;;5034249;28;20057;-52
2023/11/06 03:31:15;;;;;;;2.10;0.80;;;;;;;;;;5034097;28;20049;-57
2023/11/06 03:33:43;;;;;;;2.92;0.60;;;;;;;;;;5034183;28;20041;-58
2023/11/06 03:36:10;;;;;;;2.60;0.60;;;;;;;;;;5034346;28;20445;-54
2023/11/06 03:38:38;;;;;;;0.93;0.50;;;;;;;;;;5034450;28;20137;-54
2023/11/06 03:41:05;;;;;;;1.63;0.55;;;;;;;;;;5034988;28;20049;-57
2023/11/06 03:43:32;;;;;;;0.80;0.50;;;;;;;;;;5034145;28;20068;-54
2023/11/06 03:45:59;;;;;;;1.75;0.45;;;;;;;;;;5033611;28;20049;-54
2023/11/06 03:48:25;;;;;;;1.00;0.50;;;;;;;;;;5034042;28;20220;-51
2023/11/06 03:50:53;;;;;;;2.70;0.80;;;;;;;;;;5034034;28;20128;-51
2023/11/06 03:53:20;;;;;;;2.17;0.40;;;;;;;;;;5033255;28;20085;-52
2023/11/06 03:55:46;;;;;;;3.08;0.80;;;;;;;;;;5033369;28;20084;-54
2023/11/06 03:58:13;;;;;;;2.42;0.95;;;;;;;;;;5033436;28;20132;-51
2023/11/06 04:00:41;;;;;;;3.35;0.60;;;;;;;;;;5033794;28;20085;-52
2023/11/06 04:03:07;;;;;;;1.88;0.50;;;;;;;;;;5033571;28;20511;-51
2023/11/06 04:05:34;;;;;;;1.15;0.60;;;;;;;;;;5033560;28;20419;-53
2023/11/06 04:08:02;;;;;;;2.10;0.68;;;;;;;;;;5034058;28;20081;-53
2023/11/06 04:10:29;;;;;;;1.55;0.50;;;;;;;;;;5033513;28;20426;-53
2023/11/06 04:12:57;;;;;;;2.25;0.70;;;;;;;;;;5033542;28;20125;-57
2023/11/06 04:15:24;;;;;;;1.27;0.60;;;;;;;;;;5030891;28;20484;-55
2023/11/06 04:17:51;;;;;;;1.20;0.85;;;;;;;;;;5033794;28;20053;-52
2023/11/06 04:20:18;;;;;;;2.10;0.50;;;;;;;;;;5033674;28;20049;-56
2023/11/06 04:22:45;;;;;;;1.85;0.50;;;;;;;;;;5033110;28;20084;-52
2023/11/06 04:25:13;;;;;;;1.20;0.50;;;;;;;;;;5029931;28;20416;-51
2023/11/06 04:27:39;;;;;;;1.17;0.57;;;;;;;;;;5027774;28;20069;-51
2023/11/06 04:30:08;;;;;;;1.45;0.50;;;;;;;;;;5033086;28;20479;-55
2023/11/06 04:32:35;;;;;;;1.83;0.98;;;;;;;;;;5033108;28;20149;-55
2023/11/06 04:35:02;;;;;;;2.28;0.60;;;;;;;;;;5032708;28;20135;-52
2023/11/06 04:37:29;;;;;;;2.08;0.50;;;;;;;;;;5033124;28;20046;-52
2023/11/06 04:39:56;;;;;;;1.98;0.60;;;;;;;;;;5032979;28;20046;-55
2023/11/06 04:42:24;;;;;;;1.48;0.50;;;;;;;;;;5032964;28;20058;-55
2023/11/06 04:44:51;;;;;;;1.23;0.50;;;;;;;;;;5032529;28;20100;-57
2023/11/06 04:47:18;;;;;;;1.95;0.60;;;;;;;;;;5032896;28;20480;-53
2023/11/06 04:49:45;;;;;;;2.05;0.60;;;;;;;;;;5033154;28;20151;-51
2023/11/06 04:52:11;;;;;;;1.23;0.77;;;;;;;;;;5032330;28;20045;-54
2023/11/06 04:54:41;;;;;;;3.53;1.27;;;;;;;;;;5032909;28;20536;-52
2023/11/06 04:57:08;;;;;;;3.53;0.80;;;;;;;;;;5032569;28;20497;-52
2023/11/06 04:59:37;;;;;;;2.20;0.77;;;;;;;;;;5032603;28;20056;-51
2023/11/06 05:02:04;;;;;;;1.50;0.55;;;;;;;;;;5032832;28;20548;-55
2023/11/06 05:04:31;;;;;;;2.78;0.77;;;;;;;;;;5032742;28;20106;-52
2023/11/06 05:06:58;;;;;;;1.33;0.60;;;;;;;;;;5032279;28;20124;-52
2023/11/06 05:09:25;;;;;;;2.17;0.73;;;;;;;;;;5024855;28;20081;-50
2023/11/06 05:11:54;;;;;;;2.42;0.70;;;;;;;;;;5032350;28;20504;-53
2023/11/06 05:14:20;;;;;;;2.20;0.75;;;;;;;;;;5032026;28;20045;-54
2023/11/06 05:16:48;;;;;;;2.95;0.73;;;;;;;;;;5028129;28;20124;-51
2023/11/06 05:19:15;;;;;;;2.55;0.60;;;;;;;;;;5024468;28;20423;-52
2023/11/06 05:21:42;;;;;;;1.55;0.60;;;;;;;;;;5025963;28;20140;-51
2023/11/06 05:24:08;;;;;;;1.98;0.57;;;;;;;;;;5029624;28;20125;-54
2023/11/06 05:26:35;;;;;;;1.50;0.70;;;;;;;;;;5029672;28;20085;-53
2023/11/06 05:29:02;;;;;;;2.95;1.00;;;;;;;;;;5030891;28;20144;-53
2023/11/06 05:31:29;;;;;;;1.85;0.55;;;;;;;;;;5032507;28;20554;-51
2023/11/06 05:33:58;;;;;;;2.00;0.77;;;;;;;;;;5032128;28;20459;-56
2023/11/06 05:36:25;;;;;;;2.50;0.73;;;;;;;;;;5026975;28;20050;-53
2023/11/06 05:38:51;;;;;;;1.83;1.00;;;;;;;;;;5031952;28;20408;-55
2023/11/06 05:41:20;;;;;;;2.50;0.80;;;;;;;;;;5031700;28;20132;-54
2023/11/06 05:43:49;;;;;;;3.95;1.40;;;;;;;;;;5029214;28;20046;-51
2023/11/06 05:46:15;;;;;;;2.45;0.60;;;;;;;;;;5031846;28;20053;-55
2023/11/06 05:48:42;;;;;;;3.67;0.70;;;;;;;;;;5031354;28;20514;-57
2023/11/06 05:51:10;;;;;;;2.42;0.60;;;;;;;;;;5031925;28;20485;-52
2023/11/06 05:53:37;;;;;;;1.88;0.82;;;;;;;;;;5031571;28;20148;-55
2023/11/06 05:56:04;;;;;;;2.50;0.70;;;;;;;;;;5031402;28;20053;-55
2023/11/06 05:58:32;;;;;;;2.45;0.77;;;;;;;;;;5032039;28;20052;-52
2023/11/06 06:01:00;;;;;;;2.75;0.70;;;;;;;;;;5031777;28;20136;-55
2023/11/06 06:03:27;;;;;;;1.95;0.80;;;;;;;;;;5024413;28;20489;-54
2023/11/06 06:05:54;;;;;;;3.60;0.75;;;;;;;;;;5031855;28;20139;-52
2023/11/06 06:08:22;;;;;;;2.33;0.70;;;;;;;;;;5031739;28;20531;-54
2023/11/06 06:10:48;;;;;;;2.38;0.85;;;;;;;;;;5031665;28;20129;-51
2023/11/06 06:13:15;;;;;;;2.63;0.60;;;;;;;;;;5032021;28;20118;-54
2023/11/06 06:15:41;;;;;;;1.70;0.80;;;;;;;;;;5031540;28;20421;-54
2023/11/06 06:18:08;;;;;;;1.35;0.80;;;;;;;;;;5031645;28;20053;-51
2023/11/06 06:20:35;;;;;;;3.95;1.33;;;;;;;;;;5031378;28;20077;-53
2023/11/06 06:23:03;;;;;;;3.33;0.90;;;;;;;;;;5031148;28;20129;-54
2023/11/06 06:25:31;;;;;;;1.38;0.70;;;;;;;;;;5027185;28;20125;-56
2023/11/06 06:27:58;;;;;;;2.40;0.70;;;;;;;;;;5032440;28;20073;-53
2023/11/06 06:30:25;;;;;;;3.72;0.90;;;;;;;;;;5034007;28;20088;-57
2023/11/06 06:32:53;;;;;;;4.65;1.35;;;;;;;;;;5025479;28;20132;-58
2023/11/06 06:35:19;;;;;;;3.70;1.25;;;;;;;;;;5035584;28;20371;-58
2023/11/06 06:37:46;;;;;;;2.75;0.90;;;;;;;;;;5035855;28;20508;-58
2023/11/06 06:40:13;;;;;;;4.22;1.20;;;;;;;;;;5035423;28;20046;-59
2023/11/06 06:42:42;;;;;;;3.03;1.13;;;;;;;;;;5035732;28;20072;-57
2023/11/06 06:45:09;;;;;;;2.58;1.10;;;;;;;;;;5035490;28;20049;-59
2023/11/06 06:47:36;;;;;;;3.17;1.42;;;;;;;;;;5036208;28;20470;-56
2023/11/06 06:50:04;;;;;;;2.53;1.00;;;;;;;;;;5034811;28;20124;-56
2023/11/06 06:52:30;;;;;;;4.95;1.00;;;;;;;;;;5035124;28;20054;-54
2023/11/06 06:54:57;;;;;;;2.30;1.00;;;;;;;;;;5027175;28;20140;-55
2023/11/06 06:57:23;;;;;;;2.72;0.80;;;;;;;;;;5035650;28;20084;-59
2023/11/06 06:59:52;;;;;;;3.65;1.00;;;;;;;;;;5033098;28;20128;-55
2023/11/06 07:02:19;;;;;;;2.97;0.95;;;;;;;;;;5034741;28;20142;-56
2023/11/06 07:04:46;;;;;;;3.45;1.10;;;;;;;;;;5034698;28;20053;-57
2023/11/06 07:07:13;;;;;;;2.58;0.90;;;;;;;;;;5034970;28;20042;-58
2023/11/06 07:09:40;;;;;;;2.13;0.80;;;;;;;;;;5035459;28;20477;-56
2023/11/06 07:12:07;;;;;;;1.27;0.63;;;;;;;;;;5035064;28;20469;-56
2023/11/06 07:14:34;;;;;;;4.07;0.93;;;;;;;;;;5035071;28;20188;-54
2023/11/06 07:17:04;;;;;;;3.20;0.90;;;;;;;;;;5035098;28;20172;-56
2023/11/06 07:19:31;;;;;;;1.77;0.70;;;;;;;;;;5034734;28;20133;-58
2023/11/06 07:21:58;;;;;;;1.88;0.90;;;;;;;;;;5029961;28;20057;-57
2023/11/06 07:24:26;;;;;;;2.05;0.77;;;;;;;;;;5031101;28;20045;-53
2023/11/06 07:26:54;;;;;;;3.65;0.98;;;;;;;;;;5032718;28;20115;-56
2023/11/06 07:29:21;;;;;;;3.20;0.95;;;;;;;;;;5034249;28;20061;-55
2023/11/06 07:31:50;;;;;;;1.92;0.82;;;;;;;;;;5027440;28;20045;-60
2023/11/06 07:34:19;;;;;;;3.50;0.90;;;;;;;;;;5028512;28;20045;-58
2023/11/06 07:36:45;;;;;;;2.08;1.00;;;;;;;;;;5031988;28;20063;-57
2023/11/06 07:39:14;;;;;;;2.65;0.82;;;;;;;;;;5032830;28;20448;-58
2023/11/06 07:41:47;;;;;;;3.35;1.23;;;;;;;;;;5028177;28;20053;-57
2023/11/06 07:44:14;;;;;;;3.60;1.05;;;;;;;;;;5031667;28;20053;-59
2023/11/06 07:46:40;;;;;;;3.47;0.90;;;;;;;;;;5030804;28;20051;-58
2023/11/06 07:49:07;;;;;;;3.80;1.20;;;;;;;;;;5032478;28;20121;-57
2023/11/06 07:51:35;;;;;;;2.67;1.10;;;;;;;;;;5026413;28;20049;-58
2023/11/06 07:54:02;;;;;;;5.63;1.58;;;;;;;;;;5031663;28;20568;-58
2023/11/06 07:56:29;;;;;;;3.00;1.00;;;;;;;;;;5033349;28;20080;-58
2023/11/06 07:58:55;;;;;;;2.53;1.10;;;;;;;;;;5034247;28;20107;-59
2023/11/06 08:01:22;;;;;;;4.22;1.10;;;;;;;;;;5033978;28;20559;-56
2023/11/06 08:03:49;;;;;;;4.15;1.67;;;;;;;;;;5034461;28;20088;-55
2023/11/06 08:06:16;;;;;;;1.85;0.88;;;;;;;;;;5034248;28;20081;-56
2023/11/06 08:08:44;;;;;;;4.88;1.20;;;;;;;;;;5034115;28;20091;-56
2023/11/06 08:11:10;;;;;;;3.63;1.20;;;;;;;;;;5032816;28;20084;-57
2023/11/06 08:13:37;;;;;;;6.65;1.15;;;;;;;;;;5033748;28;20128;-54
2023/11/06 08:16:04;;;;;;;2.50;1.20;;;;;;;;;;5024921;28;20672;-58
2023/11/06 08:18:31;;;;;;;2.25;0.70;;;;;;;;;;5026861;28;20477;-58
2023/11/06 08:20:59;;;;;;;2.03;0.93;;;;;;;;;;5030790;28;20041;-55
2023/11/06 08:23:26;;;;;;;2.67;0.90;;;;;;;;;;5031480;28;20073;-58
2023/11/06 08:25:55;;;;;;;2.88;1.10;;;;;;;;;;5032276;28;20045;-56
2023/11/06 08:28:21;;;;;;;2.67;0.80;;;;;;;;;;5033434;28;20469;-57
2023/11/06 08:30:49;;;;;;;2.10;0.80;;;;;;;;;;5031294;28;20060;-58
2023/11/06 08:33:16;;;;;;;1.00;0.60;;;;;;;;;;5022735;28;20135;-58
2023/11/06 08:35:43;;;;;;;3.53;0.55;;;;;;;;;;5025005;28;20091;-59
2023/11/06 08:38:10;;;;;;;3.22;0.80;;;;;;;;;;5029601;28;20048;-56
2023/11/06 08:40:36;;;;;;;1.98;0.60;;;;;;;;;;5032289;28;20048;-56
2023/11/06 08:43:05;;;;;;;2.17;0.70;;;;;;;;;;5031379;28;20125;-57
2023/11/06 08:45:33;;;;;;;4.43;0.95;;;;;;;;;;5029975;28;20079;-55
2023/11/06 08:47:59;;;;;;;3.03;0.63;;;;;;;;;;5024813;28;20044;-58
2023/11/06 08:50:26;;;;;;;2.80;0.88;;;;;;;;;;5027887;28;20053;-62
2023/11/06 08:52:53;;;;;;;1.63;0.60;;;;;;;;;;5023857;28;20120;-64
2023/11/06 08:55:19;;;;;;;2.47;0.77;;;;;;;;;;5023037;28;20138;-62
2023/11/06 08:57:46;;;;;;;1.42;0.47;;;;;;;;;;5022282;28;20184;-63
2023/11/06 09:00:14;;;;;;;1.63;0.50;;;;;;;;;;5027120;28;20110;-63
2023/11/06 09:02:42;;;;;;;1.38;0.63;;;;;;;;;;5021904;28;20207;-60
2023/11/06 09:05:09;;;;;;;3.03;0.98;;;;;;;;;;5026111;28;20072;-57
2023/11/06 09:07:35;;;;;;;1.88;0.60;;;;;;;;;;5027839;28;20049;-60
2023/11/06 09:10:02;;;;;;;3.55;1.25;;;;;;;;;;5031204;28;20049;-58
2023/11/06 09:12:29;;;;;;;2.17;0.70;;;;;;;;;;5028780;28;20257;-60
2023/11/06 09:14:56;;;;;;;2.33;0.70;;;;;;;;;;5026200;28;20132;-60
2023/11/06 09:17:24;;;;;;;2.42;0.85;;;;;;;;;;5029265;28;20497;-57
2023/11/06 09:19:51;;;;;;;1.45;0.50;;;;;;;;;;5030858;28;20492;-59
2023/11/06 09:22:18;;;;;;;2.33;0.68;;;;;;;;;;5030947;28;20049;-57
2023/11/06 09:24:45;;;;;;;2.35;0.60;;;;;;;;;;5030081;28;20057;-58
2023/11/06 09:27:11;;;;;;;1.58;0.70;;;;;;;;;;5030218;28;20485;-57
2023/11/06 09:29:38;;;;;;;1.88;0.82;;;;;;;;;;5030719;28;20552;-54
2023/11/06 09:32:05;;;;;;;3.05;0.70;;;;;;;;;;5027294;28;20052;-55
2023/11/06 09:34:35;;;;;;;1.35;0.68;;;;;;;;;;5026882;28;20299;-55
2023/11/06 09:37:01;;;;;;;4.15;1.08;;;;;;;;;;5022072;28;20049;-57
2023/11/06 09:39:28;;;;;;;3.25;0.90;;;;;;;;;;5030171;28;20068;-56
2023/11/06 09:41:55;;;;;;;2.25;0.60;;;;;;;;;;5028336;28;20064;-57
2023/11/06 09:44:22;;;;;;;2.00;0.60;;;;;;;;;;5027057;28;20045;-54
2023/11/06 09:46:50;;;;;;;2.85;1.17;;;;;;;;;;5027017;28;20053;-60
2023/11/06 09:49:26;;;;;;;2.03;0.60;;;;;;;;;;5028041;28;20052;-57
2023/11/06 09:51:54;;;;;;;4.00;0.90;;;;;;;;;;5025638;28;20045;-57
2023/11/06 09:54:22;;;;;;;2.60;0.70;;;;;;;;;;5021726;28;20049;-56
2023/11/06 09:56:48;;;;;;;1.90;0.55;;;;;;;;;;5023543;28;20409;-57
2023/11/06 09:59:17;;;;;;;2.63;0.70;;;;;;;;;;5023477;28;20045;-58
2023/11/06 10:01:44;;;;;;;1.35;0.70;;;;;;;;;;5022718;28;20052;-58
2023/11/06 10:04:11;;;;;;;3.13;0.90;;;;;;;;;;5025944;28;20051;-58
2023/11/06 10:06:38;;;;;;;3.97;0.80;;;;;;;;;;5021516;28;20549;-55
2023/11/06 10:12:14;;;;;;;2.00;0.52;;;;;;;;;;5082834;28;20394;-57
2023/11/06 10:14:41;;;;;;;1.25;0.40;;;;;;;;;;5051911;28;20524;-57
2023/11/06 10:17:08;;;;;;;3.35;1.67;;;;;;;;;;5041361;28;20057;-57
2023/11/06 10:19:35;;;;;;;2.08;0.60;;;;;;;;;;5044565;28;20432;-58
2023/11/06 10:22:12;;;;;;;1.60;0.50;;;;;;;;;;5044080;28;20041;-59
2023/11/06 10:24:49;;;;;;;2.53;0.80;;;;;;;;;;5045895;28;20041;-57
2023/11/06 10:27:25;;;;;;;4.00;1.17;;;;;;;;;;5043984;28;20041;-58
2023/11/06 10:30:04;;;;;;;1.95;0.60;;;;;;;;;;5042384;28;20455;-58
2023/11/06 10:32:31;;;;;;;2.70;0.70;;;;;;;;;;5045523;28;20041;-57
2023/11/06 10:35:00;;;;;;;1.00;0.50;;;;;;;;;;5045064;28;20068;-57
2023/11/06 10:37:28;;;;;;;1.55;0.55;;;;;;;;;;5044462;28;20474;-55
2023/11/06 10:39:56;;;;;;;1.00;0.40;;;;;;;;;;5046294;28;20048;-55
2023/11/06 10:42:25;;;;;;;1.88;0.50;;;;;;;;;;5046530;28;20126;-56
2023/11/06 10:44:57;;;;;;;2.83;0.60;;;;;;;;;;5045591;28;20044;-58
2023/11/06 10:47:27;;;;;;;2.03;0.50;;;;;;;;;;5044282;28;20049;-56
2023/11/06 10:50:01;;;;;;;2.08;0.93;;;;;;;;;;5046056;28;20064;-58
2023/11/06 10:52:32;;;;;;;2.40;0.60;;;;;;;;;;5034175;28;20048;-57
2023/11/06 10:55:00;;;;;;;2.03;0.60;;;;;;;;;;5046084;28;20045;-57
2023/11/06 10:57:33;;;;;;;1.02;0.40;;;;;;;;;;5043844;28;20128;-56
2023/11/06 11:00:01;;;;;;;1.77;0.50;;;;;;;;;;5045617;28;20045;-56
2023/11/06 11:02:42;;;;;;;1.38;0.50;;;;;;;;;;5046119;28;20088;-58
2023/11/06 11:05:12;;;;;;;2.05;0.80;;;;;;;;;;5045720;28;20053;-55
2023/11/06 11:07:39;;;;;;;1.38;0.40;;;;;;;;;;5046177;28;20049;-58
2023/11/06 11:10:10;;;;;;;0.98;0.60;;;;;;;;;;5045861;28;20053;-56
2023/11/06 11:12:38;;;;;;;2.50;0.70;;;;;;;;;;5040771;28;20041;-59
2023/11/06 11:15:06;;;;;;;1.88;0.50;;;;;;;;;;5045480;28;20485;-56
2023/11/06 11:17:33;;;;;;;0.98;0.50;;;;;;;;;;5045929;28;20148;-57
2023/11/06 11:20:05;;;;;;;0.70;0.38;;;;;;;;;;5043955;28;20053;-55
2023/11/06 11:22:33;;;;;;;2.63;0.77;;;;;;;;;;5036662;28;20058;-58
2023/11/06 11:25:01;;;;;;;2.28;0.60;;;;;;;;;;5032058;28;20053;-60
2023/11/06 11:27:28;;;;;;;1.85;0.40;;;;;;;;;;5030873;28;20053;-55
2023/11/06 11:30:10;;;;;;;1.17;0.50;;;;;;;;;;5032484;28;20078;-56
2023/11/06 11:32:51;;;;;;;1.23;0.40;;;;;;;;;;5027323;28;20042;-57
2023/11/06 11:35:51;;;;;;;3.25;0.70;;;;;;;;;;5028019;28;20397;-61
2023/11/06 11:38:22;;;;;;;2.17;0.97;;;;;;;;;;4969565;28;20463;-56
2023/11/06 11:41:10;;;;;;;2.78;0.65;;;;;;;;;;4966667;28;20063;-57
2023/11/06 11:43:40;;;;;;;1.77;0.43;;;;;;;;;;5004384;28;20107;-59
2023/11/06 11:46:35;;;;;;;2.08;0.50;;;;;;;;;;5031528;28;20050;-59
2023/11/06 11:49:01;;;;;;;0.82;0.45;;;;;;;;;;5025645;28;20089;-58
2023/11/06 11:51:48;;;;;;;1.55;0.70;;;;;;;;;;5029637;28;20077;-59
2023/11/06 11:54:28;;;;;;;2.13;0.70;;;;;;;;;;5025110;28;20604;-58
2023/11/06 11:56:56;;;;;;;1.95;0.73;;;;;;;;;;5032017;28;20361;-59
2023/11/06 11:59:23;;;;;;;2.05;0.60;;;;;;;;;;5032074;28;20049;-57
2023/11/06 12:01:51;;;;;;;2.65;0.60;;;;;;;;;;5031934;28;20137;-59
2023/11/06 12:04:22;;;;;;;3.05;0.85;;;;;;;;;;5031646;28;20049;-57
2023/11/06 12:06:49;;;;;;;2.25;0.65;;;;;;;;;;5031088;28;20081;-63
2023/11/06 12:09:17;;;;;;;1.55;0.50;;;;;;;;;;5031776;28;20451;-54
2023/11/06 12:11:47;;;;;;;1.42;0.60;;;;;;;;;;5030844;28;20090;-57
2023/11/06 12:14:13;;;;;;;2.33;0.63;;;;;;;;;;5031521;28;20184;-57
2023/11/06 12:16:48;;;;;;;2.03;0.50;;;;;;;;;;5031129;28;20275;-57
2023/11/06 12:19:16;;;;;;;3.22;0.68;;;;;;;;;;5031365;28;20053;-56
2023/11/06 12:21:44;;;;;;;3.33;0.60;;;;;;;;;;5031545;28;20064;-56
2023/11/06 12:24:11;;;;;;;1.20;0.70;;;;;;;;;;5031059;28;20053;-56
2023/11/06 12:26:51;;;;;;;1.95;0.50;;;;;;;;;;5031909;28;20046;-59
2023/11/06 12:29:26;;;;;;;1.77;0.57;;;;;;;;;;5031783;28;20540;-59
2023/11/06 12:31:53;;;;;;;0.95;0.40;;;;;;;;;;5031478;28;20045;-57
2023/11/06 12:34:21;;;;;;;1.30;0.40;;;;;;;;;;5030245;28;20132;-57
2023/11/06 12:36:48;;;;;;;1.15;0.55;;;;;;;;;;5030998;28;20068;-58
2023/11/06 12:39:28;;;;;;;2.22;0.70;;;;;;;;;;5030995;28;20417;-57
2023/11/06 12:41:58;;;;;;;3.33;0.85;;;;;;;;;;5030960;28;20132;-58
2023/11/06 12:44:38;;;;;;;2.08;0.80;;;;;;;;;;5031323;28;20055;-58
2023/11/06 12:47:06;;;;;;;2.00;0.68;;;;;;;;;;5030815;28;20045;-54
2023/11/06 12:49:50;;;;;;;1.10;0.47;;;;;;;;;;5031215;28;20124;-57
2023/11/06 12:52:18;;;;;;;1.65;0.60;;;;;;;;;;5030903;28;20048;-58
2023/11/06 12:54:47;;;;;;;2.70;0.70;;;;;;;;;;5031024;28;20379;-58
2023/11/06 12:57:16;;;;;;;1.65;0.60;;;;;;;;;;5031179;28;20119;-58
2023/11/06 12:59:43;;;;;;;1.60;0.60;;;;;;;;;;5031520;28;20056;-57
2023/11/06 13:02:11;;;;;;;1.60;0.50;;;;;;;;;;5031279;28;20068;-57
2023/11/06 13:04:37;;;;;;;2.20;0.50;;;;;;;;;;5031145;28;20045;-58
2023/11/06 13:07:06;;;;;;;2.65;0.60;;;;;;;;;;5030926;28;20049;-57
2023/11/06 13:09:33;;;;;;;1.60;0.50;;;;;;;;;;5030946;28;20096;-59
2023/11/06 13:12:00;;;;;;;1.52;0.60;;;;;;;;;;5031115;28;20386;-58
2023/11/06 13:14:27;;;;;;;1.77;0.38;;;;;;;;;;5030901;28;20056;-58
2023/11/06 13:16:55;;;;;;;1.80;0.60;;;;;;;;;;5030340;28;20111;-56
2023/11/06 13:19:28;;;;;;;1.83;0.40;;;;;;;;;;5031042;28;20132;-55
2023/11/06 13:21:58;;;;;;;1.05;0.45;;;;;;;;;;5026596;28;20445;-57
2023/11/06 13:24:29;;;;;;;;;;;;;;;;;;5031312;28;20056;-55
2023/11/06 13:26:56;;;;;;;0.98;0.40;;;;;;;;;;5030679;28;19928;-57
2023/11/06 13:29:24;;;;;;;2.28;0.50;;;;;;;;;;5030753;28;20051;-54
2023/11/06 13:31:51;;;;;;;1.27;0.57;;;;;;;;;;5030742;28;20045;-56
2023/11/06 13:34:17;;;;;;;2.17;0.50;;;;;;;;;;5029618;28;20124;-57
2023/11/06 13:36:48;;;;;;;1.35;0.50;;;;;;;;;;5030217;28;20041;-54
2023/11/06 13:39:19;;;;;;;1.73;0.70;;;;;;;;;;5029926;28;20052;-55
2023/11/06 13:41:53;;;;;;;1.63;0.65;;;;;;;;;;5028692;28;20068;-57
2023/11/06 13:44:20;;;;;;;2.05;0.70;;;;;;;;;;5030065;28;20069;-59
2023/11/06 13:46:48;;;;;;;1.73;0.50;;;;;;;;;;5030037;28;20488;-59
2023/11/06 13:49:17;;;;;;;2.28;0.63;;;;;;;;;;5030004;28;20569;-58
2023/11/06 13:51:43;;;;;;;0.95;0.55;;;;;;;;;;5029838;28;20409;-58
2023/11/06 13:54:22;;;;;;;3.22;0.65;;;;;;;;;;5030095;28;20049;-59
2023/11/06 13:56:52;;;;;;;2.33;0.65;;;;;;;;;;5030147;28;20045;-58
2023/11/06 13:59:25;;;;;;;4.65;0.77;;;;;;;;;;5030340;28;20493;-57
2023/11/06 14:01:51;;;;;;;1.38;0.57;;;;;;;;;;5030297;28;20507;-59
2023/11/06 14:04:19;;;;;;;1.38;0.55;;;;;;;;;;5029935;28;20041;-57
2023/11/06 14:06:47;;;;;;;1.05;0.50;;;;;;;;;;5030348;28;20066;-58
2023/11/06 14:09:34;;;;;;;2.17;0.68;;;;;;;;;;5030514;28;20053;-59
2023/11/06 14:12:04;;;;;;;1.08;0.43;;;;;;;;;;5030018;28;20050;-58
2023/11/06 14:14:31;;;;;;;1.45;0.52;;;;;;;;;;5022570;28;20439;-58
2023/11/06 14:16:59;;;;;;;3.42;1.20;;;;;;;;;;5029994;28;20077;-58
2023/11/06 14:19:27;;;;;;;2.35;0.77;;;;;;;;;;5030257;28;20111;-56
2023/11/06 14:21:53;;;;;;;2.88;0.55;;;;;;;;;;5030592;28;20045;-58
2023/11/06 14:24:20;;;;;;;2.03;0.60;;;;;;;;;;5030150;28;20476;-59
2023/11/06 14:26:47;;;;;;;2.03;0.60;;;;;;;;;;5030140;28;20057;-58
2023/11/06 14:29:15;;;;;;;1.95;0.60;;;;;;;;;;5030499;28;20049;-59
2023/11/06 14:31:42;;;;;;;1.98;0.43;;;;;;;;;;5029868;28;20045;-58
2023/11/06 14:34:08;;;;;;;2.88;0.95;;;;;;;;;;5029690;28;20120;-58
2023/11/06 14:36:36;;;;;;;2.03;0.90;;;;;;;;;;5029802;28;20133;-58
2023/11/06 14:39:04;;;;;;;2.30;0.70;;;;;;;;;;5030019;28;20542;-58
2023/11/06 14:41:31;;;;;;;3.40;1.08;;;;;;;;;;5030303;28;20050;-58
2023/11/06 14:43:58;;;;;;;2.17;0.70;;;;;;;;;;5029989;28;20107;-58
2023/11/06 14:46:26;;;;;;;1.65;0.68;;;;;;;;;;5029728;28;20050;-58
2023/11/06 14:48:52;;;;;;;3.60;0.85;;;;;;;;;;5029945;28;20133;-59
2023/11/06 14:51:19;;;;;;;2.85;0.88;;;;;;;;;;5029853;28;20389;-56
2023/11/06 14:53:46;;;;;;;2.25;0.80;;;;;;;;;;5029296;28;20053;-56